sensor_id;sensor_type;location;lat;lon;timestamp;pressure;altitude;pressure_sealevel;temperature
66170;BMP280;66757;44.024;20.456;2023-07-30T00:02:17;97700.88;;;22.31
66170;BMP280;66757;44.024;20.456;2023-07-30T00:04:43;97706.31;;;22.28
66170;BMP280;66757;44.024;20.456;2023-07-30T00:07:08;97714.03;;;22.22
66170;BMP280;66757;44.024;20.456;2023-07-30T00:09:34;97705.94;;;22.29
66170;BMP280;66757;44.024;20.456;2023-07-30T00:11:59;97703.59;;;22.24
66170;BMP280;66757;44.024;20.456;2023-07-30T00:14:27;97704.78;;;22.02
66170;BMP280;66757;44.024;20.456;2023-07-30T00:16:52;97702.06;;;22.16
66170;BMP280;66757;44.024;20.456;2023-07-30T00:19:17;97709.78;;;22.17
66170;BMP280;66757;44.024;20.456;2023-07-30T00:21:42;97709.41;;;22.30
66170;BMP280;66757;44.024;20.456;2023-07-30T00:24:11;97711.31;;;22.18
66170;BMP280;66757;44.024;20.456;2023-07-30T00:26:36;97709.00;;;21.67
66170;BMP280;66757;44.024;20.456;2023-07-30T00:29:03;97706.66;;;21.62
66170;BMP280;66757;44.024;20.456;2023-07-30T00:31:28;97708.22;;;21.63
66170;BMP280;66757;44.024;20.456;2023-07-30T00:33:54;97706.25;;;21.64
66170;BMP280;66757;44.024;20.456;2023-07-30T00:36:19;97713.94;;;21.51
66170;BMP280;66757;44.024;20.456;2023-07-30T00:38:44;97705.13;;;21.68
66170;BMP280;66757;44.024;20.456;2023-07-30T00:41:10;97702.44;;;21.75
66170;BMP280;66757;44.024;20.456;2023-07-30T00:43:35;97708.19;;;21.42
66170;BMP280;66757;44.024;20.456;2023-07-30T00:46:01;97710.88;;;21.49
66170;BMP280;66757;44.024;20.456;2023-07-30T00:48:26;97714.28;;;21.28
66170;BMP280;66757;44.024;20.456;2023-07-30T00:50:51;97707.81;;;21.65
66170;BMP280;66757;44.024;20.456;2023-07-30T00:53:17;97710.94;;;21.85
66170;BMP280;66757;44.024;20.456;2023-07-30T00:55:43;97707.44;;;21.81
66170;BMP280;66757;44.024;20.456;2023-07-30T00:58:09;97705.91;;;21.72
66170;BMP280;66757;44.024;20.456;2023-07-30T01:00:34;97707.81;;;21.75
66170;BMP280;66757;44.024;20.456;2023-07-30T01:03:00;97706.69;;;21.87
66170;BMP280;66757;44.024;20.456;2023-07-30T01:05:26;97704.75;;;21.81
66170;BMP280;66757;44.024;20.456;2023-07-30T01:07:51;97704.00;;;21.69
66170;BMP280;66757;44.024;20.456;2023-07-30T01:10:16;97707.09;;;21.82
66170;BMP280;66757;44.024;20.456;2023-07-30T01:12:42;97715.53;;;21.81
66170;BMP280;66757;44.024;20.456;2023-07-30T01:15:07;97713.25;;;21.68
66170;BMP280;66757;44.024;20.456;2023-07-30T01:17:33;97716.28;;;21.42
66170;BMP280;66757;44.024;20.456;2023-07-30T01:19:59;97709.38;;;21.55
66170;BMP280;66757;44.024;20.456;2023-07-30T01:22:24;97695.53;;;21.71
66170;BMP280;66757;44.024;20.456;2023-07-30T01:24:49;97697.81;;;21.83
66170;BMP280;66757;44.024;20.456;2023-07-30T01:32:37;97694.75;;;21.85
66170;BMP280;66757;44.024;20.456;2023-07-30T01:35:03;97699.72;;;21.47
66170;BMP280;66757;44.024;20.456;2023-07-30T01:37:29;97697.38;;;21.42
66170;BMP280;66757;44.024;20.456;2023-07-30T01:39:55;97694.97;;;21.09
66170;BMP280;66757;44.024;20.456;2023-07-30T01:42:20;97698.78;;;20.94
66170;BMP280;66757;44.024;20.456;2023-07-30T01:44:45;97703.16;;;21.41
66170;BMP280;66757;44.024;20.456;2023-07-30T01:47:11;97691.59;;;21.44
66170;BMP280;66757;44.024;20.456;2023-07-30T01:49:36;97695.84;;;21.48
66170;BMP280;66757;44.024;20.456;2023-07-30T01:52:01;97689.28;;;21.42
66170;BMP280;66757;44.024;20.456;2023-07-30T01:54:27;97691.63;;;21.54
66170;BMP280;66757;44.024;20.456;2023-07-30T01:56:52;97691.63;;;21.61
66170;BMP280;66757;44.024;20.456;2023-07-30T01:59:18;97684.66;;;21.43
66170;BMP280;66757;44.024;20.456;2023-07-30T02:01:43;97695.47;;;21.46
66170;BMP280;66757;44.024;20.456;2023-07-30T02:04:08;97686.97;;;21.51
66170;BMP280;66757;44.024;20.456;2023-07-30T02:06:34;97687.97;;;20.94
66170;BMP280;66757;44.024;20.456;2023-07-30T02:08:59;97681.09;;;21.07
66170;BMP280;66757;44.024;20.456;2023-07-30T02:11:24;97676.16;;;21.30
66170;BMP280;66757;44.024;20.456;2023-07-30T02:13:50;97678.44;;;21.28
66170;BMP280;66757;44.024;20.456;2023-07-30T02:16:15;97687.97;;;20.94
66170;BMP280;66757;44.024;20.456;2023-07-30T02:18:40;97677.69;;;21.24
66170;BMP280;66757;44.024;20.456;2023-07-30T02:21:05;97680.78;;;21.33
66170;BMP280;66757;44.024;20.456;2023-07-30T02:23:31;97674.22;;;21.27
66170;BMP280;66757;44.024;20.456;2023-07-30T02:25:56;97673.81;;;21.28
66170;BMP280;66757;44.024;20.456;2023-07-30T02:28:21;97675.75;;;21.28
66170;BMP280;66757;44.024;20.456;2023-07-30T02:30:47;97681.16;;;21.24
66170;BMP280;66757;44.024;20.456;2023-07-30T02:33:12;97673.41;;;21.16
66170;BMP280;66757;44.024;20.456;2023-07-30T02:35:37;97671.09;;;21.18
66170;BMP280;66757;44.024;20.456;2023-07-30T02:38:03;97676.16;;;21.23
66170;BMP280;66757;44.024;20.456;2023-07-30T02:40:28;97678.41;;;21.17
66170;BMP280;66757;44.024;20.456;2023-07-30T02:42:54;97673.06;;;21.28
66170;BMP280;66757;44.024;20.456;2023-07-30T02:45:19;97684.59;;;21.21
66170;BMP280;66757;44.024;20.456;2023-07-30T02:47:44;97682.25;;;21.20
66170;BMP280;66757;44.024;20.456;2023-07-30T02:50:10;97691.13;;;21.13
66170;BMP280;66757;44.024;20.456;2023-07-30T02:52:35;97691.50;;;21.12
66170;BMP280;66757;44.024;20.456;2023-07-30T02:55:01;97696.00;;;20.83
66170;BMP280;66757;44.024;20.456;2023-07-30T02:57:27;97698.22;;;20.67
66170;BMP280;66757;44.024;20.456;2023-07-30T02:59:53;97690.66;;;20.90
66170;BMP280;66757;44.024;20.456;2023-07-30T03:02:18;97693.25;;;20.69
66170;BMP280;66757;44.024;20.456;2023-07-30T03:04:43;97692.88;;;20.77
66170;BMP280;66757;44.024;20.456;2023-07-30T03:07:09;97694.50;;;20.92
66170;BMP280;66757;44.024;20.456;2023-07-30T03:09:34;97697.56;;;20.84
66170;BMP280;66757;44.024;20.456;2023-07-30T03:12:00;97704.25;;;20.46
66170;BMP280;66757;44.024;20.456;2023-07-30T03:14:25;97706.81;;;20.32
66170;BMP280;66757;44.024;20.456;2023-07-30T03:16:50;97708.94;;;20.53
66170;BMP280;66757;44.024;20.456;2023-07-30T03:19:16;97710.66;;;20.85
66170;BMP280;66757;44.024;20.456;2023-07-30T03:21:41;97709.91;;;20.92
66170;BMP280;66757;44.024;20.456;2023-07-30T03:24:06;97703.72;;;20.91
66170;BMP280;66757;44.024;20.456;2023-07-30T03:26:32;97703.72;;;20.81
66170;BMP280;66757;44.024;20.456;2023-07-30T03:28:57;97707.53;;;20.80
66170;BMP280;66757;44.024;20.456;2023-07-30T03:31:22;97706.00;;;20.82
66170;BMP280;66757;44.024;20.456;2023-07-30T03:33:48;97704.81;;;20.69
66170;BMP280;66757;44.024;20.456;2023-07-30T03:36:13;97706.31;;;20.70
66170;BMP280;66757;44.024;20.456;2023-07-30T03:38:39;97699.38;;;20.66
66170;BMP280;66757;44.024;20.456;2023-07-30T03:41:04;97703.63;;;20.74
66170;BMP280;66757;44.024;20.456;2023-07-30T03:43:30;97700.63;;;20.82
66170;BMP280;66757;44.024;20.456;2023-07-30T03:45:56;97702.16;;;20.83
66170;BMP280;66757;44.024;20.456;2023-07-30T03:48:21;97700.66;;;20.86
66170;BMP280;66757;44.024;20.456;2023-07-30T03:50:46;97699.09;;;20.88
66170;BMP280;66757;44.024;20.456;2023-07-30T03:53:12;97708.34;;;20.87
66170;BMP280;66757;44.024;20.456;2023-07-30T03:55:37;97701.38;;;20.83
66170;BMP280;66757;44.024;20.456;2023-07-30T03:58:02;97702.16;;;20.87
66170;BMP280;66757;44.024;20.456;2023-07-30T04:00:28;97707.91;;;20.78
66170;BMP280;66757;44.024;20.456;2023-07-30T04:02:54;97704.50;;;20.85
66170;BMP280;66757;44.024;20.456;2023-07-30T04:05:19;97705.16;;;20.64
66170;BMP280;66757;44.024;20.456;2023-07-30T04:07:45;97707.38;;;20.52
66170;BMP280;66757;44.024;20.456;2023-07-30T04:10:10;97710.56;;;20.64
66170;BMP280;66757;44.024;20.456;2023-07-30T04:12:35;97707.63;;;20.94
66170;BMP280;66757;44.024;20.456;2023-07-30T04:15:01;97695.63;;;20.91
66170;BMP280;66757;44.024;20.456;2023-07-30T04:17:26;97702.25;;;20.98
66170;BMP280;66757;44.024;20.456;2023-07-30T04:19:51;97701.03;;;20.88
66170;BMP280;66757;44.024;20.456;2023-07-30T04:22:18;97697.63;;;21.05
66170;BMP280;66757;44.024;20.456;2023-07-30T04:24:43;97695.31;;;20.97
66170;BMP280;66757;44.024;20.456;2023-07-30T04:27:08;97694.38;;;20.68
66170;BMP280;66757;44.024;20.456;2023-07-30T04:29:33;97702.00;;;20.52
66170;BMP280;66757;44.024;20.456;2023-07-30T04:31:59;97695.56;;;20.74
66170;BMP280;66757;44.024;20.456;2023-07-30T04:34:24;97705.31;;;21.03
66170;BMP280;66757;44.024;20.456;2023-07-30T04:36:49;97697.72;;;21.26
66170;BMP280;66757;44.024;20.456;2023-07-30T04:39:15;97703.13;;;21.33
66170;BMP280;66757;44.024;20.456;2023-07-30T04:41:40;97693.41;;;21.11
66170;BMP280;66757;44.024;20.456;2023-07-30T04:44:05;97698.16;;;21.43
66170;BMP280;66757;44.024;20.456;2023-07-30T04:46:31;97704.72;;;21.38
66170;BMP280;66757;44.024;20.456;2023-07-30T04:48:58;97689.31;;;21.53
66170;BMP280;66757;44.024;20.456;2023-07-30T04:51:23;97702.41;;;21.51
66170;BMP280;66757;44.024;20.456;2023-07-30T04:53:48;97692.41;;;21.72
66170;BMP280;66757;44.024;20.456;2023-07-30T04:56:14;97704.63;;;21.20
66170;BMP280;66757;44.024;20.456;2023-07-30T04:58:39;97697.31;;;21.14
66170;BMP280;66757;44.024;20.456;2023-07-30T05:01:05;97694.69;;;21.42
66170;BMP280;66757;44.024;20.456;2023-07-30T05:03:30;97702.41;;;21.51
66170;BMP280;66757;44.024;20.456;2023-07-30T05:05:55;97693.19;;;21.62
66170;BMP280;66757;44.024;20.456;2023-07-30T05:08:20;97696.28;;;21.68
66170;BMP280;66757;44.024;20.456;2023-07-30T05:10:46;97697.78;;;21.80
66170;BMP280;66757;44.024;20.456;2023-07-30T05:13:11;97699.34;;;21.88
66170;BMP280;66757;44.024;20.456;2023-07-30T05:15:38;97697.06;;;21.86
66170;BMP280;66757;44.024;20.456;2023-07-30T05:18:03;97700.13;;;22.24
66170;BMP280;66757;44.024;20.456;2023-07-30T05:20:29;97706.72;;;22.12
66170;BMP280;66757;44.024;20.456;2023-07-30T05:22:54;97704.41;;;22.14
66170;BMP280;66757;44.024;20.456;2023-07-30T05:25:19;97697.72;;;22.54
66170;BMP280;66757;44.024;20.456;2023-07-30T05:27:44;97697.38;;;22.38
66170;BMP280;66757;44.024;20.456;2023-07-30T05:30:10;97703.16;;;22.50
66170;BMP280;66757;44.024;20.456;2023-07-30T05:32:35;97695.03;;;22.72
66170;BMP280;66757;44.024;20.456;2023-07-30T05:35:01;97689.94;;;22.77
66170;BMP280;66757;44.024;20.456;2023-07-30T05:37:27;97689.84;;;23.06
66170;BMP280;66757;44.024;20.456;2023-07-30T05:39:52;97694.13;;;22.96
66170;BMP280;66757;44.024;20.456;2023-07-30T05:42:17;97687.34;;;23.36
66170;BMP280;66757;44.024;20.456;2023-07-30T05:44:42;97689.66;;;23.37
66170;BMP280;66757;44.024;20.456;2023-07-30T05:47:08;97695.50;;;23.32
66170;BMP280;66757;44.024;20.456;2023-07-30T05:49:33;97693.38;;;23.58
66170;BMP280;66757;44.024;20.456;2023-07-30T05:51:58;97697.63;;;23.59
66170;BMP280;66757;44.024;20.456;2023-07-30T05:54:24;97688.75;;;23.55
66170;BMP280;66757;44.024;20.456;2023-07-30T05:56:49;97696.59;;;23.42
66170;BMP280;66757;44.024;20.456;2023-07-30T05:59:14;97685.47;;;23.26
66170;BMP280;66757;44.024;20.456;2023-07-30T06:01:40;97686.78;;;23.59
66170;BMP280;66757;44.024;20.456;2023-07-30T06:04:05;97685.34;;;23.95
66170;BMP280;66757;44.024;20.456;2023-07-30T06:06:30;97687.84;;;24.16
66170;BMP280;66757;44.024;20.456;2023-07-30T06:08:56;97692.16;;;24.51
66170;BMP280;66757;44.024;20.456;2023-07-30T06:11:21;97690.16;;;24.55
66170;BMP280;66757;44.024;20.456;2023-07-30T06:13:47;97684.41;;;24.84
66170;BMP280;66757;44.024;20.456;2023-07-30T06:16:12;97681.75;;;24.80
66170;BMP280;66757;44.024;20.456;2023-07-30T06:18:38;97677.97;;;25.01
66170;BMP280;66757;44.024;20.456;2023-07-30T06:21:03;97687.66;;;25.29
66170;BMP280;66757;44.024;20.456;2023-07-30T06:23:28;97684.75;;;25.43
66170;BMP280;66757;44.024;20.456;2023-07-30T06:25:54;97684.22;;;25.24
66170;BMP280;66757;44.024;20.456;2023-07-30T06:28:19;97685.13;;;25.41
66170;BMP280;66757;44.024;20.456;2023-07-30T06:30:44;97681.38;;;25.58
66170;BMP280;66757;44.024;20.456;2023-07-30T06:33:10;97682.25;;;25.75
66170;BMP280;66757;44.024;20.456;2023-07-30T06:35:35;97667.31;;;25.87
66170;BMP280;66757;44.024;20.456;2023-07-30T06:38:00;97658.97;;;25.97
66170;BMP280;66757;44.024;20.456;2023-07-30T06:40:26;97658.50;;;26.02
66170;BMP280;66757;44.024;20.456;2023-07-30T06:42:51;97652.53;;;25.88
66170;BMP280;66757;44.024;20.456;2023-07-30T06:45:16;97644.63;;;25.97
66170;BMP280;66757;44.024;20.456;2023-07-30T06:47:42;97647.38;;;26.17
66170;BMP280;66757;44.024;20.456;2023-07-30T06:50:07;97642.09;;;25.86
66170;BMP280;66757;44.024;20.456;2023-07-30T06:52:35;97637.22;;;26.37
66170;BMP280;66757;44.024;20.456;2023-07-30T06:55:01;97637.22;;;26.17
66170;BMP280;66757;44.024;20.456;2023-07-30T06:57:28;97639.03;;;26.24
66170;BMP280;66757;44.024;20.456;2023-07-30T06:59:53;97636.28;;;26.63
66170;BMP280;66757;44.024;20.456;2023-07-30T07:02:19;97637.78;;;26.48
66170;BMP280;66757;44.024;20.456;2023-07-30T07:04:44;97633.03;;;26.72
66170;BMP280;66757;44.024;20.456;2023-07-30T07:07:09;97628.56;;;26.61
66170;BMP280;66757;44.024;20.456;2023-07-30T07:09:35;97625.22;;;26.90
66170;BMP280;66757;44.024;20.456;2023-07-30T07:12:00;97630.13;;;26.95
66170;BMP280;66757;44.024;20.456;2023-07-30T07:14:26;97625.81;;;27.46
66170;BMP280;66757;44.024;20.456;2023-07-30T07:16:52;97627.41;;;27.43
66170;BMP280;66757;44.024;20.456;2023-07-30T07:19:17;97630.00;;;27.34
66170;BMP280;66757;44.024;20.456;2023-07-30T07:21:42;97628.03;;;27.51
66170;BMP280;66757;44.024;20.456;2023-07-30T07:24:08;97627.25;;;28.08
66170;BMP280;66757;44.024;20.456;2023-07-30T07:26:33;97633.47;;;28.09
66170;BMP280;66757;44.024;20.456;2023-07-30T07:28:59;97640.72;;;28.28
66170;BMP280;66757;44.024;20.456;2023-07-30T07:31:24;97638.34;;;28.42
66170;BMP280;66757;44.024;20.456;2023-07-30T07:33:50;97637.25;;;28.40
66170;BMP280;66757;44.024;20.456;2023-07-30T07:36:15;97637.81;;;28.47
66170;BMP280;66757;44.024;20.456;2023-07-30T07:38:41;97635.09;;;28.47
66170;BMP280;66757;44.024;20.456;2023-07-30T07:41:06;97635.06;;;28.60
66170;BMP280;66757;44.024;20.456;2023-07-30T07:43:31;97636.09;;;28.79
66170;BMP280;66757;44.024;20.456;2023-07-30T07:45:57;97640.44;;;28.76
66170;BMP280;66757;44.024;20.456;2023-07-30T07:48:22;97634.53;;;28.90
66170;BMP280;66757;44.024;20.456;2023-07-30T07:50:47;97630.56;;;29.29
66170;BMP280;66757;44.024;20.456;2023-07-30T07:53:12;97627.66;;;29.45
66170;BMP280;66757;44.024;20.456;2023-07-30T07:55:38;97631.09;;;29.24
66170;BMP280;66757;44.024;20.456;2023-07-30T07:58:03;97625.72;;;29.33
66170;BMP280;66757;44.024;20.456;2023-07-30T08:00:28;97620.97;;;29.12
66170;BMP280;66757;44.024;20.456;2023-07-30T08:02:54;97614.44;;;28.97
66170;BMP280;66757;44.024;20.456;2023-07-30T08:05:19;97617.88;;;29.57
66170;BMP280;66757;44.024;20.456;2023-07-30T08:07:47;97616.03;;;29.54
66170;BMP280;66757;44.024;20.456;2023-07-30T08:10:13;97616.44;;;29.87
66170;BMP280;66757;44.024;20.456;2023-07-30T08:12:38;97624.34;;;29.94
66170;BMP280;66757;44.024;20.456;2023-07-30T08:15:03;97615.41;;;29.93
66170;BMP280;66757;44.024;20.456;2023-07-30T08:17:29;97618.72;;;29.88
66170;BMP280;66757;44.024;20.456;2023-07-30T08:19:54;97604.00;;;30.17
66170;BMP280;66757;44.024;20.456;2023-07-30T08:22:20;97610.31;;;30.35
66170;BMP280;66757;44.024;20.456;2023-07-30T08:24:45;97616.34;;;30.21
66170;BMP280;66757;44.024;20.456;2023-07-30T08:27:10;97612.16;;;30.08
66170;BMP280;66757;44.024;20.456;2023-07-30T08:29:36;97603.19;;;30.38
66170;BMP280;66757;44.024;20.456;2023-07-30T08:32:01;97609.13;;;30.36
66170;BMP280;66757;44.024;20.456;2023-07-30T08:34:26;97607.25;;;30.73
66170;BMP280;66757;44.024;20.456;2023-07-30T08:36:52;97605.44;;;30.79
66170;BMP280;66757;44.024;20.456;2023-07-30T08:39:17;97598.03;;;31.07
66170;BMP280;66757;44.024;20.456;2023-07-30T08:41:43;97606.28;;;31.34
66170;BMP280;66757;44.024;20.456;2023-07-30T08:44:09;97599.88;;;31.74
66170;BMP280;66757;44.024;20.456;2023-07-30T08:46:34;97580.41;;;32.04
66170;BMP280;66757;44.024;20.456;2023-07-30T08:49:00;97581.00;;;31.39
66170;BMP280;66757;44.024;20.456;2023-07-30T08:51:26;97579.63;;;31.35
66170;BMP280;66757;44.024;20.456;2023-07-30T08:53:51;97576.69;;;31.75
66170;BMP280;66757;44.024;20.456;2023-07-30T08:56:17;97582.03;;;31.87
66170;BMP280;66757;44.024;20.456;2023-07-30T08:58:42;97571.75;;;32.06
66170;BMP280;66757;44.024;20.456;2023-07-30T09:01:08;97576.16;;;32.36
66170;BMP280;66757;44.024;20.456;2023-07-30T09:03:35;97573.25;;;32.40
66170;BMP280;66757;44.024;20.456;2023-07-30T09:06:02;97568.34;;;32.11
66170;BMP280;66757;44.024;20.456;2023-07-30T09:08:28;97569.19;;;32.26
66170;BMP280;66757;44.024;20.456;2023-07-30T09:10:53;97564.00;;;31.86
66170;BMP280;66757;44.024;20.456;2023-07-30T09:13:22;97554.16;;;32.45
66170;BMP280;66757;44.024;20.456;2023-07-30T09:15:50;97557.84;;;32.66
66170;BMP280;66757;44.024;20.456;2023-07-30T09:18:19;97559.78;;;32.51
66170;BMP280;66757;44.024;20.456;2023-07-30T09:20:45;97555.25;;;32.39
66170;BMP280;66757;44.024;20.456;2023-07-30T09:23:10;97553.91;;;32.58
66170;BMP280;66757;44.024;20.456;2023-07-30T09:25:36;97558.34;;;32.55
66170;BMP280;66757;44.024;20.456;2023-07-30T09:28:02;97559.13;;;32.56
66170;BMP280;66757;44.024;20.456;2023-07-30T09:30:27;97553.50;;;32.74
66170;BMP280;66757;44.024;20.456;2023-07-30T09:32:53;97544.84;;;32.43
66170;BMP280;66757;44.024;20.456;2023-07-30T09:35:19;97541.13;;;32.55
66170;BMP280;66757;44.024;20.456;2023-07-30T09:37:44;97551.25;;;32.73
66170;BMP280;66757;44.024;20.456;2023-07-30T09:40:11;97546.84;;;32.66
66170;BMP280;66757;44.024;20.456;2023-07-30T09:42:43;97535.72;;;32.84
66170;BMP280;66757;44.024;20.456;2023-07-30T09:45:16;97528.88;;;33.62
66170;BMP280;66757;44.024;20.456;2023-07-30T09:47:45;97530.69;;;33.21
66170;BMP280;66757;44.024;20.456;2023-07-30T09:50:11;97527.94;;;33.65
66170;BMP280;66757;44.024;20.456;2023-07-30T09:52:36;97519.94;;;33.82
66170;BMP280;66757;44.024;20.456;2023-07-30T09:55:01;97514.91;;;33.95
66170;BMP280;66757;44.024;20.456;2023-07-30T09:57:27;97518.34;;;33.46
66170;BMP280;66757;44.024;20.456;2023-07-30T09:59:52;97521.66;;;32.91
66170;BMP280;66757;44.024;20.456;2023-07-30T10:02:18;97513.78;;;33.72
66170;BMP280;66757;44.024;20.456;2023-07-30T10:04:44;97513.28;;;34.23
66170;BMP280;66757;44.024;20.456;2023-07-30T10:07:14;97516.00;;;35.09
66170;BMP280;66757;44.024;20.456;2023-07-30T10:09:42;97516.41;;;35.54
66170;BMP280;66757;44.024;20.456;2023-07-30T10:12:12;97519.22;;;36.55
66170;BMP280;66757;44.024;20.456;2023-07-30T10:14:38;97523.22;;;38.09
66170;BMP280;66757;44.024;20.456;2023-07-30T10:17:04;97528.22;;;38.16
66170;BMP280;66757;44.024;20.456;2023-07-30T10:19:30;97526.19;;;39.82
66170;BMP280;66757;44.024;20.456;2023-07-30T10:24:37;97512.47;;;37.72
66170;BMP280;66757;44.024;20.456;2023-07-30T10:27:06;97522.50;;;37.87
66170;BMP280;66757;44.024;20.456;2023-07-30T10:29:32;97512.13;;;38.61
66170;BMP280;66757;44.024;20.456;2023-07-30T10:31:59;97499.34;;;39.66
66170;BMP280;66757;44.024;20.456;2023-07-30T10:34:26;97492.13;;;39.82
66170;BMP280;66757;44.024;20.456;2023-07-30T10:36:52;97489.19;;;39.26
66170;BMP280;66757;44.024;20.456;2023-07-30T10:39:20;97494.25;;;39.94
66170;BMP280;66757;44.024;20.456;2023-07-30T10:41:50;97495.78;;;40.64
66170;BMP280;66757;44.024;20.456;2023-07-30T10:46:44;97492.88;;;39.34
66170;BMP280;66757;44.024;20.456;2023-07-30T10:49:09;97487.66;;;40.35
66170;BMP280;66757;44.024;20.456;2023-07-30T10:51:37;97474.28;;;40.14
66170;BMP280;66757;44.024;20.456;2023-07-30T10:54:05;97473.09;;;40.29
66170;BMP280;66757;44.024;20.456;2023-07-30T10:56:30;97483.63;;;39.50
66170;BMP280;66757;44.024;20.456;2023-07-30T10:58:56;97475.03;;;39.00
66170;BMP280;66757;44.024;20.456;2023-07-30T11:01:25;97476.91;;;39.64
66170;BMP280;66757;44.024;20.456;2023-07-30T11:03:51;97469.06;;;39.44
66170;BMP280;66757;44.024;20.456;2023-07-30T11:06:23;97464.84;;;39.80
66170;BMP280;66757;44.024;20.456;2023-07-30T11:08:49;97466.06;;;39.42
66170;BMP280;66757;44.024;20.456;2023-07-30T11:11:15;97457.41;;;39.70
66170;BMP280;66757;44.024;20.456;2023-07-30T11:13:41;97459.50;;;39.82
66170;BMP280;66757;44.024;20.456;2023-07-30T11:16:08;97464.81;;;39.37
66170;BMP280;66757;44.024;20.456;2023-07-30T11:18:33;97459.69;;;38.63
66170;BMP280;66757;44.024;20.456;2023-07-30T11:21:06;97447.69;;;39.09
66170;BMP280;66757;44.024;20.456;2023-07-30T11:23:32;97462.06;;;38.83
66170;BMP280;66757;44.024;20.456;2023-07-30T11:25:57;97458.75;;;39.15
66170;BMP280;66757;44.024;20.456;2023-07-30T11:30:55;97457.81;;;38.42
66170;BMP280;66757;44.024;20.456;2023-07-30T11:33:20;97446.09;;;38.89
66170;BMP280;66757;44.024;20.456;2023-07-30T11:35:46;97436.06;;;37.36
66170;BMP280;66757;44.024;20.456;2023-07-30T11:38:11;97441.13;;;36.77
66170;BMP280;66757;44.024;20.456;2023-07-30T11:40:38;97430.44;;;36.25
66170;BMP280;66757;44.024;20.456;2023-07-30T11:43:04;97425.44;;;35.28
66170;BMP280;66757;44.024;20.456;2023-07-30T11:45:29;97416.31;;;36.12
66170;BMP280;66757;44.024;20.456;2023-07-30T11:47:55;97416.31;;;35.53
66170;BMP280;66757;44.024;20.456;2023-07-30T11:50:41;97411.09;;;35.24
66170;BMP280;66757;44.024;20.456;2023-07-30T11:53:07;97406.69;;;35.06
66170;BMP280;66757;44.024;20.456;2023-07-30T11:55:38;97394.91;;;35.00
66170;BMP280;66757;44.024;20.456;2023-07-30T11:58:04;97402.63;;;35.27
66170;BMP280;66757;44.024;20.456;2023-07-30T12:00:31;97395.38;;;35.35
66170;BMP280;66757;44.024;20.456;2023-07-30T12:02:59;97392.91;;;35.38
66170;BMP280;66757;44.024;20.456;2023-07-30T12:05:37;97387.56;;;35.28
66170;BMP280;66757;44.024;20.456;2023-07-30T12:08:03;97385.94;;;35.48
66170;BMP280;66757;44.024;20.456;2023-07-30T12:10:43;97383.78;;;35.68
66170;BMP280;66757;44.024;20.456;2023-07-30T12:13:15;97381.63;;;35.04
66170;BMP280;66757;44.024;20.456;2023-07-30T12:15:42;97365.28;;;35.32
66170;BMP280;66757;44.024;20.456;2023-07-30T12:18:07;97363.28;;;35.80
66170;BMP280;66757;44.024;20.456;2023-07-30T12:20:33;97355.84;;;34.76
66170;BMP280;66757;44.024;20.456;2023-07-30T12:22:58;97355.78;;;35.02
66170;BMP280;66757;44.024;20.456;2023-07-30T12:25:23;97359.34;;;35.08
66170;BMP280;66757;44.024;20.456;2023-07-30T12:27:49;97351.31;;;34.73
66170;BMP280;66757;44.024;20.456;2023-07-30T12:30:14;97350.31;;;35.07
66170;BMP280;66757;44.024;20.456;2023-07-30T12:32:39;97341.78;;;35.11
66170;BMP280;66757;44.024;20.456;2023-07-30T12:35:05;97337.06;;;34.49
66170;BMP280;66757;44.024;20.456;2023-07-30T12:37:30;97334.78;;;34.21
66170;BMP280;66757;44.024;20.456;2023-07-30T12:39:57;97326.84;;;34.55
66170;BMP280;66757;44.024;20.456;2023-07-30T12:42:23;97321.38;;;34.86
66170;BMP280;66757;44.024;20.456;2023-07-30T12:44:48;97318.19;;;34.99
66170;BMP280;66757;44.024;20.456;2023-07-30T12:47:13;97303.69;;;35.09
66170;BMP280;66757;44.024;20.456;2023-07-30T12:49:38;97294.63;;;34.98
66170;BMP280;66757;44.024;20.456;2023-07-30T12:52:04;97300.75;;;35.72
66170;BMP280;66757;44.024;20.456;2023-07-30T12:54:29;97294.16;;;35.05
66170;BMP280;66757;44.024;20.456;2023-07-30T12:56:55;97299.31;;;35.28
66170;BMP280;66757;44.024;20.456;2023-07-30T12:59:20;97306.53;;;35.79
66170;BMP280;66757;44.024;20.456;2023-07-30T13:01:45;97302.69;;;34.70
66170;BMP280;66757;44.024;20.456;2023-07-30T13:04:11;97304.97;;;34.20
66170;BMP280;66757;44.024;20.456;2023-07-30T13:06:36;97312.47;;;34.45
66170;BMP280;66757;44.024;20.456;2023-07-30T13:09:01;97307.16;;;34.99
66170;BMP280;66757;44.024;20.456;2023-07-30T13:11:27;97300.44;;;34.68
66170;BMP280;66757;44.024;20.456;2023-07-30T13:13:52;97311.72;;;34.45
66170;BMP280;66757;44.024;20.456;2023-07-30T13:16:17;97313.38;;;34.62
66170;BMP280;66757;44.024;20.456;2023-07-30T13:18:43;97299.38;;;34.66
66170;BMP280;66757;44.024;20.456;2023-07-30T13:21:08;97306.47;;;34.47
66170;BMP280;66757;44.024;20.456;2023-07-30T13:23:33;97305.50;;;34.50
66170;BMP280;66757;44.024;20.456;2023-07-30T13:25:59;97309.72;;;34.45
66170;BMP280;66757;44.024;20.456;2023-07-30T13:28:25;97313.81;;;34.30
66170;BMP280;66757;44.024;20.456;2023-07-30T13:30:50;97303.16;;;34.11
66170;BMP280;66757;44.024;20.456;2023-07-30T13:33:16;97286.03;;;33.82
66170;BMP280;66757;44.024;20.456;2023-07-30T13:35:42;97283.75;;;34.00
66170;BMP280;66757;44.024;20.456;2023-07-30T13:38:08;97279.50;;;33.79
66170;BMP280;66757;44.024;20.456;2023-07-30T13:40:33;97286.59;;;33.45
66170;BMP280;66757;44.024;20.456;2023-07-30T13:42:58;97304.94;;;32.84
66170;BMP280;66757;44.024;20.456;2023-07-30T13:45:24;97318.41;;;32.82
66170;BMP280;66757;44.024;20.456;2023-07-30T13:47:49;97337.19;;;32.31
66170;BMP280;66757;44.024;20.456;2023-07-30T13:50:14;97347.78;;;31.99
66170;BMP280;66757;44.024;20.456;2023-07-30T13:52:39;97348.72;;;31.96
66170;BMP280;66757;44.024;20.456;2023-07-30T13:55:06;97348.97;;;31.84
66170;BMP280;66757;44.024;20.456;2023-07-30T13:57:31;97331.63;;;31.21
66170;BMP280;66757;44.024;20.456;2023-07-30T13:59:57;97320.09;;;31.08
66170;BMP280;66757;44.024;20.456;2023-07-30T14:02:22;97320.59;;;30.97